createdAt,value
2023-04-11T00:00:56.426Z,463.00
2023-04-11T00:01:56.579Z,462.00
2023-04-11T00:02:56.717Z,459.00
2023-04-11T00:03:56.614Z,458.00
2023-04-11T00:04:56.564Z,459.00
2023-04-11T00:05:56.566Z,462.00
2023-04-11T00:06:56.600Z,465.00
2023-04-11T00:07:56.631Z,463.00
2023-04-11T00:08:57.046Z,463.00
2023-04-11T00:09:56.663Z,463.00
2023-04-11T00:10:56.695Z,462.00
2023-04-11T00:11:56.715Z,465.00
2023-04-11T00:12:56.977Z,463.00
2023-04-11T00:13:56.769Z,465.00
2023-04-11T00:14:56.785Z,467.00
2023-04-11T00:15:56.881Z,468.00
2023-04-11T00:16:56.910Z,469.00
2023-04-11T00:17:56.900Z,470.00
2023-04-11T00:18:57.096Z,466.00
2023-04-11T00:19:56.931Z,466.00
2023-04-11T00:20:56.966Z,466.00
2023-04-11T00:21:56.988Z,465.00
2023-04-11T00:22:57.014Z,464.00
2023-04-11T00:23:57.088Z,464.00
2023-04-11T00:24:57.076Z,462.00
2023-04-11T00:25:57.103Z,463.00
2023-04-11T00:26:57.149Z,464.00
2023-04-11T00:27:57.166Z,462.00
2023-04-11T00:28:57.265Z,462.00
2023-04-11T00:29:57.222Z,459.00
2023-04-11T00:30:57.243Z,461.00
2023-04-11T00:31:57.303Z,462.00
2023-04-11T00:32:57.330Z,463.00
2023-04-11T00:33:57.320Z,460.00
2023-04-11T00:34:57.356Z,461.00
2023-04-11T00:35:57.443Z,460.00
2023-04-11T00:36:57.482Z,460.00
2023-04-11T00:37:57.434Z,459.00
2023-04-11T00:38:57.659Z,459.00
2023-04-11T00:39:57.486Z,461.00
2023-04-11T00:40:57.534Z,460.00
2023-04-11T00:41:57.576Z,463.00
2023-04-11T00:42:57.624Z,462.00
2023-04-11T00:43:57.744Z,462.00
2023-04-11T00:44:57.657Z,463.00
2023-04-11T00:45:57.687Z,459.00
2023-04-11T00:46:57.676Z,462.00
2023-04-11T00:47:57.734Z,460.00
2023-04-11T00:48:58.047Z,461.00
2023-04-11T00:49:57.754Z,459.00
2023-04-11T00:50:57.774Z,461.00
2023-04-11T00:51:57.796Z,458.00
2023-04-11T00:52:57.814Z,460.00
2023-04-11T00:53:57.853Z,463.00
2023-04-11T00:54:57.874Z,462.00
2023-04-11T00:55:57.902Z,465.00
2023-04-11T00:56:57.930Z,465.00
2023-04-11T00:57:57.951Z,465.00
2023-04-11T00:58:57.978Z,465.00
2023-04-11T00:59:58.001Z,464.00
2023-04-11T01:00:58.036Z,465.00
2023-04-11T01:01:58.191Z,463.00
2023-04-11T01:02:58.186Z,462.00
2023-04-11T01:03:58.166Z,462.00
2023-04-11T01:04:58.133Z,462.00
2023-04-11T01:05:58.151Z,466.00
2023-04-11T01:06:58.177Z,465.00
2023-04-11T01:07:58.217Z,463.00
2023-04-11T01:08:58.406Z,463.00
2023-04-11T01:09:58.272Z,464.00
2023-04-11T01:10:58.298Z,461.00
2023-04-11T01:11:58.333Z,461.00
2023-04-11T01:12:58.360Z,459.00
2023-04-11T01:13:58.389Z,459.00
2023-04-11T01:14:58.441Z,460.00
2023-04-11T01:15:58.446Z,460.00
2023-04-11T01:16:58.552Z,461.00
2023-04-11T01:17:58.579Z,461.00
2023-04-11T01:18:58.531Z,459.00
2023-04-11T01:19:58.556Z,458.00
2023-04-11T01:20:58.604Z,459.00
2023-04-11T01:21:58.621Z,457.00
2023-04-11T01:22:58.639Z,457.00
2023-04-11T01:23:58.674Z,461.00
2023-04-11T01:24:58.706Z,461.00
2023-04-11T01:25:58.736Z,462.00
2023-04-11T01:26:58.774Z,467.00
2023-04-11T01:27:58.806Z,468.00
2023-04-11T01:28:58.833Z,469.00
2023-04-11T01:29:58.852Z,467.00
2023-04-11T01:30:58.891Z,465.00
2023-04-11T01:31:58.910Z,464.00
2023-04-11T01:32:58.972Z,462.00
2023-04-11T01:33:58.865Z,461.00
2023-04-11T01:34:58.839Z,462.00
2023-04-11T01:35:58.856Z,461.00
2023-04-11T01:36:58.809Z,461.00
2023-04-11T01:37:58.802Z,461.00
2023-04-11T01:38:58.771Z,461.00
2023-04-11T01:39:58.764Z,462.00
2023-04-11T01:40:58.774Z,463.00
2023-04-11T01:41:58.763Z,463.00
2023-04-11T01:42:58.745Z,466.00
2023-04-11T01:43:58.723Z,466.00
2023-04-11T01:44:58.704Z,464.00
2023-04-11T01:45:58.668Z,462.00
2023-04-11T01:46:58.680Z,463.00
2023-04-11T01:47:58.746Z,464.00
2023-04-11T01:48:58.862Z,467.00
2023-04-11T01:49:58.646Z,465.00
2023-04-11T01:50:58.611Z,465.00
2023-04-11T01:51:58.593Z,465.00
2023-04-11T01:52:58.585Z,466.00
2023-04-11T01:53:58.554Z,465.00
2023-04-11T01:54:58.537Z,465.00
2023-04-11T01:55:58.498Z,467.00
2023-04-11T01:56:58.485Z,467.00
2023-04-11T01:57:58.465Z,468.00
2023-04-11T01:58:58.431Z,468.00
2023-04-11T01:59:58.414Z,467.00
2023-04-11T02:00:58.412Z,470.00
2023-04-11T02:01:58.482Z,470.00
2023-04-11T02:02:58.495Z,469.00
2023-04-11T02:03:58.469Z,466.00
2023-04-11T02:04:58.324Z,466.00
2023-04-11T02:05:58.300Z,463.00
2023-04-11T02:06:58.279Z,462.00
2023-04-11T02:07:58.257Z,462.00
2023-04-11T02:08:58.247Z,462.00
2023-04-11T02:09:58.237Z,459.00
2023-04-11T02:10:58.191Z,459.00
2023-04-11T02:11:58.164Z,458.00
2023-04-11T02:12:58.154Z,460.00
2023-04-11T02:13:58.118Z,461.00
2023-04-11T02:14:58.090Z,460.00
2023-04-11T02:15:58.100Z,460.00
2023-04-11T02:16:58.037Z,459.00
2023-04-11T02:17:58.055Z,460.00
2023-04-11T02:18:58.241Z,461.00
2023-04-11T02:19:58.059Z,462.00
2023-04-11T02:20:57.956Z,461.00
2023-04-11T02:21:57.925Z,462.00
2023-04-11T02:22:57.903Z,465.00
2023-04-11T02:23:58.775Z,465.00
2023-04-11T02:24:57.864Z,467.00
2023-04-11T02:25:57.848Z,465.00
2023-04-11T02:26:57.815Z,462.00
2023-04-11T02:27:57.850Z,459.00
2023-04-11T02:28:57.892Z,458.00
2023-04-11T02:29:57.761Z,457.00
2023-04-11T02:30:57.807Z,458.00
2023-04-11T02:31:57.748Z,460.00
2023-04-11T02:32:57.703Z,459.00
2023-04-11T02:33:57.656Z,461.00
2023-04-11T02:34:57.633Z,461.00
2023-04-11T02:35:57.614Z,461.00
2023-04-11T02:36:57.589Z,461.00
2023-04-11T02:37:57.560Z,460.00
2023-04-11T02:38:57.644Z,461.00
2023-04-11T02:39:57.545Z,460.00
2023-04-11T02:40:57.485Z,459.00
2023-04-11T02:41:57.532Z,459.00
2023-04-11T02:42:57.444Z,461.00
2023-04-11T02:43:57.414Z,460.00
2023-04-11T02:44:57.398Z,460.00
2023-04-11T02:46:09.503Z,459.00
2023-04-11T02:46:58.349Z,459.00
2023-04-11T02:47:57.309Z,459.00
2023-04-11T02:48:57.515Z,459.00
2023-04-11T02:49:57.215Z,459.00
2023-04-11T02:50:57.181Z,459.00
2023-04-11T02:51:57.161Z,458.00
2023-04-11T02:52:57.138Z,455.00
2023-04-11T02:53:57.106Z,454.00
2023-04-11T02:54:57.072Z,455.00
2023-04-11T02:55:57.082Z,455.00
2023-04-11T02:56:57.009Z,454.00
2023-04-11T02:57:56.968Z,453.00
2023-04-11T02:58:57.186Z,455.00
2023-04-11T02:59:56.899Z,454.00
2023-04-11T03:00:56.863Z,455.00
2023-04-11T03:01:56.880Z,455.00
2023-04-11T03:02:56.881Z,456.00
2023-04-11T03:03:56.817Z,457.00
2023-04-11T03:04:56.722Z,459.00
2023-04-11T03:05:56.684Z,459.00
2023-04-11T03:06:56.649Z,459.00
2023-04-11T03:07:56.621Z,459.00
2023-04-11T03:08:56.985Z,459.00
2023-04-11T03:09:56.534Z,461.00
2023-04-11T03:10:56.492Z,461.00
2023-04-11T03:11:56.448Z,462.00
2023-04-11T03:12:56.395Z,462.00
2023-04-11T03:13:56.379Z,463.00
2023-04-11T03:14:56.339Z,461.00
2023-04-11T03:15:56.326Z,460.00
2023-04-11T03:16:56.276Z,459.00
2023-04-11T03:17:56.274Z,457.00
2023-04-11T03:18:56.476Z,456.00
2023-04-11T03:19:56.165Z,459.00
2023-04-11T03:20:56.221Z,461.00
2023-04-11T03:21:56.102Z,461.00
2023-04-11T03:22:56.073Z,462.00
2023-04-11T03:23:56.044Z,460.00
2023-04-11T03:24:56.004Z,463.00
2023-04-11T03:25:55.976Z,464.00
2023-04-11T03:26:55.945Z,463.00
2023-04-11T03:27:55.916Z,462.00
2023-04-11T03:28:55.990Z,462.00
2023-04-11T03:29:55.858Z,460.00
2023-04-11T03:30:55.850Z,459.00
2023-04-11T03:31:55.808Z,457.00
2023-04-11T03:32:55.833Z,456.00
2023-04-11T03:33:55.751Z,457.00
2023-04-11T03:34:55.729Z,459.00
2023-04-11T03:35:55.744Z,460.00
2023-04-11T03:36:55.650Z,463.00
2023-04-11T03:37:55.624Z,465.00
2023-04-11T03:38:55.840Z,465.00
2023-04-11T03:39:55.562Z,464.00
2023-04-11T03:40:55.533Z,461.00
2023-04-11T03:41:55.499Z,461.00
2023-04-11T03:42:55.478Z,457.00
2023-04-11T03:43:55.447Z,457.00
2023-04-11T03:44:55.404Z,457.00
2023-04-11T03:45:55.371Z,458.00
2023-04-11T03:46:55.477Z,460.00
2023-04-11T03:47:55.348Z,460.00
2023-04-11T03:48:55.509Z,463.00
2023-04-11T03:49:55.240Z,464.00
2023-04-11T03:50:55.202Z,465.00
2023-04-11T03:51:55.179Z,464.00
2023-04-11T03:52:55.139Z,463.00
2023-04-11T03:53:55.121Z,462.00
2023-04-11T03:54:55.080Z,461.00
2023-04-11T03:55:55.053Z,460.00
2023-04-11T03:56:55.036Z,461.00
2023-04-11T03:57:54.993Z,459.00
2023-04-11T03:58:55.181Z,460.00
2023-04-11T03:59:54.964Z,458.00
2023-04-11T04:00:54.943Z,460.00
2023-04-11T04:01:55.025Z,459.00
2023-04-11T04:02:55.065Z,459.00
2023-04-11T04:03:55.299Z,463.00
2023-04-11T04:04:55.016Z,459.00
2023-04-11T04:05:54.849Z,458.00
2023-04-11T04:06:54.830Z,456.00
2023-04-11T04:07:55.910Z,458.00
2023-04-11T04:08:54.792Z,461.00
2023-04-11T04:09:54.766Z,459.00
2023-04-11T04:10:54.756Z,458.00
2023-04-11T04:11:54.727Z,460.00
2023-04-11T04:12:54.712Z,458.00
2023-04-11T04:13:54.932Z,459.00
2023-04-11T04:14:54.668Z,461.00
2023-04-11T04:15:54.675Z,461.00
2023-04-11T04:16:54.727Z,463.00
2023-04-11T04:17:54.763Z,464.00
2023-04-11T04:18:54.600Z,462.00
2023-04-11T04:19:54.567Z,460.00
2023-04-11T04:20:54.563Z,462.00
2023-04-11T04:21:54.529Z,459.00
2023-04-11T04:22:54.492Z,461.00
2023-04-11T04:23:54.697Z,462.00
2023-04-11T04:24:54.448Z,462.00
2023-04-11T04:25:54.424Z,463.00
2023-04-11T04:26:54.401Z,459.00
2023-04-11T04:27:54.370Z,457.00
2023-04-11T04:28:54.361Z,455.00
2023-04-11T04:29:56.361Z,458.00
2023-04-11T04:30:55.310Z,458.00
2023-04-11T04:31:54.306Z,459.00
2023-04-11T04:32:54.281Z,459.00
2023-04-11T04:33:54.352Z,455.00
2023-04-11T04:34:54.199Z,457.00
2023-04-11T04:35:54.191Z,456.00
2023-04-11T04:36:54.124Z,456.00
2023-04-11T04:37:54.209Z,456.00
2023-04-11T04:38:54.073Z,455.00
2023-04-11T04:39:54.048Z,458.00
2023-04-11T04:40:54.001Z,460.00
2023-04-11T04:41:53.977Z,458.00
2023-04-11T04:42:53.930Z,458.00
2023-04-11T04:43:54.064Z,459.00
2023-04-11T04:44:53.861Z,460.00
2023-04-11T04:45:53.907Z,458.00
2023-04-11T04:46:53.792Z,458.00
2023-04-11T04:47:53.801Z,457.00
2023-04-11T04:48:53.723Z,454.00
2023-04-11T04:49:53.690Z,454.00
2023-04-11T04:50:53.686Z,452.00
2023-04-11T04:51:53.633Z,451.00
2023-04-11T04:52:53.594Z,451.00
2023-04-11T04:53:53.737Z,451.00
2023-04-11T04:54:53.521Z,449.00
2023-04-11T04:55:53.491Z,450.00
2023-04-11T04:56:53.468Z,453.00
2023-04-11T04:57:53.450Z,453.00
2023-04-11T04:58:53.410Z,454.00
2023-04-11T04:59:53.382Z,455.00
2023-04-11T05:00:53.368Z,453.00
2023-04-11T05:01:53.577Z,453.00
2023-04-11T05:02:53.353Z,454.00
2023-04-11T05:03:53.356Z,454.00
2023-04-11T05:04:53.220Z,454.00
2023-04-11T05:05:53.202Z,451.00
2023-04-11T05:06:53.175Z,452.00
2023-04-11T05:07:53.126Z,453.00
2023-04-11T05:08:53.087Z,453.00
2023-04-11T05:09:53.052Z,453.00
2023-04-11T05:10:53.016Z,454.00
2023-04-11T05:11:52.984Z,454.00
2023-04-11T05:12:52.959Z,456.00
2023-04-11T05:13:52.922Z,456.00
2023-04-11T05:14:52.885Z,457.00
2023-04-11T05:15:52.867Z,456.00
2023-04-11T05:16:52.870Z,457.00
2023-04-11T05:17:52.847Z,457.00
2023-04-11T05:18:52.747Z,454.00
2023-04-11T05:19:52.719Z,460.00
2023-04-11T05:20:52.700Z,469.00
2023-04-11T05:21:52.657Z,467.00
2023-04-11T05:22:52.635Z,473.00
2023-04-11T05:23:52.601Z,479.00
2023-04-11T05:24:52.582Z,552.00
2023-04-11T05:25:52.531Z,587.00
2023-04-11T05:26:52.499Z,563.00
2023-04-11T05:27:52.471Z,567.00
2023-04-11T05:28:52.527Z,581.00
2023-04-11T05:29:52.398Z,657.00
2023-04-11T05:30:52.407Z,687.00
2023-04-11T05:31:52.347Z,727.00
2023-04-11T05:32:52.381Z,808.00
2023-04-11T05:33:52.278Z,813.00
2023-04-11T05:34:52.249Z,843.00
2023-04-11T05:35:52.274Z,856.00
2023-04-11T05:36:52.192Z,903.00
2023-04-11T05:37:52.152Z,917.00
2023-04-11T05:38:52.202Z,934.00
2023-04-11T05:39:52.084Z,942.00
2023-04-11T05:40:52.052Z,972.00
2023-04-11T05:41:52.003Z,1007.00
2023-04-11T05:42:51.961Z,1031.00
2023-04-11T05:43:51.920Z,1056.00
2023-04-11T05:44:54.800Z,1066.00
2023-04-11T05:45:51.846Z,1088.00
2023-04-11T05:46:51.776Z,1100.00
2023-04-11T05:47:51.804Z,1114.00
2023-04-11T05:48:51.706Z,1173.00
2023-04-11T05:49:51.665Z,1179.00
2023-04-11T05:50:51.636Z,1193.00
2023-04-11T05:51:51.593Z,1209.00
2023-04-11T05:52:51.533Z,1225.00
2023-04-11T05:53:51.488Z,1248.00
2023-04-11T05:54:51.446Z,1268.00
2023-04-11T05:55:51.388Z,1288.00
2023-04-11T05:56:51.345Z,1305.00
2023-04-11T05:57:51.297Z,963.00
2023-04-11T05:58:51.257Z,1004.00
2023-04-11T05:59:51.221Z,995.00
2023-04-11T06:00:51.192Z,881.00
2023-04-11T06:01:51.182Z,834.00
2023-04-11T06:02:51.221Z,845.00
2023-04-11T06:03:51.910Z,831.00
2023-04-11T06:04:51.094Z,953.00
2023-04-11T06:05:51.012Z,1076.00
2023-04-11T06:06:50.967Z,1144.00
2023-04-11T06:07:50.935Z,1150.00
2023-04-11T06:08:50.901Z,1153.00
2023-04-11T06:09:50.867Z,1163.00
2023-04-11T06:10:50.823Z,1177.00
2023-04-11T06:11:50.778Z,1193.00
2023-04-11T06:12:50.738Z,1215.00
2023-04-11T06:13:50.695Z,1231.00
2023-04-11T06:14:50.644Z,1248.00
2023-04-11T06:15:50.629Z,1259.00
2023-04-11T06:16:50.580Z,1274.00
2023-04-11T06:17:50.615Z,1288.00
2023-04-11T06:18:50.501Z,1307.00
2023-04-11T06:19:50.465Z,1328.00
2023-04-11T06:20:50.427Z,1344.00
2023-04-11T06:21:50.389Z,1332.00
2023-04-11T06:22:50.353Z,1301.00
2023-04-11T06:23:50.705Z,1333.00
2023-04-11T06:24:50.266Z,1351.00
2023-04-11T06:25:50.239Z,1377.00
2023-04-11T06:26:50.197Z,1418.00
2023-04-11T06:27:50.170Z,1431.00
2023-04-11T06:28:50.792Z,1239.00
2023-04-11T06:29:50.106Z,980.00
2023-04-11T06:30:50.117Z,853.00
2023-04-11T06:31:50.203Z,816.00
2023-04-11T06:32:50.187Z,760.00
2023-04-11T06:33:50.018Z,748.00
2023-04-11T06:34:49.981Z,764.00
2023-04-11T06:35:50.845Z,813.00
2023-04-11T06:36:49.957Z,841.00
2023-04-11T06:37:49.923Z,928.00
2023-04-11T06:38:49.891Z,945.00
2023-04-11T06:39:49.868Z,955.00
2023-04-11T06:40:49.857Z,976.00
2023-04-11T06:41:49.868Z,1017.00
2023-04-11T06:42:49.879Z,1046.00
2023-04-11T06:43:49.864Z,1066.00
2023-04-11T06:44:50.344Z,1082.00
2023-04-11T06:45:49.884Z,1102.00
2023-04-11T06:46:49.876Z,1123.00
2023-04-11T06:47:49.827Z,1183.00
2023-04-11T06:48:49.775Z,1201.00
2023-04-11T06:49:49.750Z,1217.00
2023-04-11T06:50:49.722Z,1238.00
2023-04-11T06:51:49.698Z,1039.00
2023-04-11T06:52:49.684Z,917.00
2023-04-11T06:53:49.689Z,774.00
2023-04-11T06:54:49.736Z,722.00
2023-04-11T06:55:49.744Z,682.00
2023-04-11T06:56:49.725Z,651.00
2023-04-11T06:57:49.796Z,626.00
2023-04-11T06:58:49.745Z,599.00
2023-04-11T06:59:49.767Z,585.00
2023-04-11T07:00:49.790Z,589.00
2023-04-11T07:01:49.981Z,667.00
2023-04-11T07:02:50.175Z,682.00
2023-04-11T07:03:50.999Z,692.00
2023-04-11T07:04:49.913Z,700.00
2023-04-11T07:05:50.307Z,714.00
2023-04-11T07:06:49.783Z,751.00
2023-04-11T07:07:49.774Z,787.00
2023-04-11T07:08:49.737Z,809.00
2023-04-11T07:09:49.723Z,841.00
2023-04-11T07:10:49.735Z,889.00
2023-04-11T07:11:49.629Z,916.00
2023-04-11T07:12:49.602Z,970.00
2023-04-11T07:13:49.566Z,980.00
2023-04-11T07:14:49.538Z,988.00
2023-04-11T07:15:49.572Z,1006.00
2023-04-11T07:16:49.495Z,1025.00
2023-04-11T07:17:51.434Z,1040.00
2023-04-11T07:18:49.447Z,1065.00
2023-04-11T07:19:49.397Z,1071.00
2023-04-11T07:20:49.360Z,1079.00
2023-04-11T07:21:49.338Z,1084.00
2023-04-11T07:22:49.292Z,1088.00
2023-04-11T07:23:49.250Z,1095.00
2023-04-11T07:24:49.222Z,1096.00
2023-04-11T07:25:49.191Z,1095.00
2023-04-11T07:26:49.158Z,1094.00
2023-04-11T07:27:49.130Z,1091.00
2023-04-11T07:28:49.085Z,1092.00
2023-04-11T07:29:49.065Z,1095.00
2023-04-11T07:30:49.089Z,1094.00
2023-04-11T07:31:49.022Z,1096.00
2023-04-11T07:32:49.029Z,1099.00
2023-04-11T07:33:48.919Z,1102.00
2023-04-11T07:34:48.893Z,1101.00
2023-04-11T07:35:48.908Z,1097.00
2023-04-11T07:36:48.812Z,1095.00
2023-04-11T07:37:48.783Z,1096.00
2023-04-11T07:38:48.747Z,1096.00
2023-04-11T07:39:48.708Z,1095.00
2023-04-11T07:40:48.681Z,1093.00
2023-04-11T07:41:48.647Z,1089.00
2023-04-11T07:42:48.602Z,1084.00
2023-04-11T07:43:48.578Z,1083.00
2023-04-11T07:44:48.536Z,1082.00
2023-04-11T07:45:48.547Z,1083.00
2023-04-11T07:46:48.472Z,1086.00
2023-04-11T07:47:48.465Z,1087.00
2023-04-11T07:48:48.399Z,1084.00
2023-04-11T07:49:48.378Z,1081.00
2023-04-11T07:50:48.320Z,1078.00
2023-04-11T07:51:48.276Z,1079.00
2023-04-11T07:52:48.241Z,1079.00
2023-04-11T07:53:48.207Z,1076.00
2023-04-11T07:54:48.166Z,1076.00
2023-04-11T07:55:48.131Z,1077.00
2023-04-11T07:56:48.092Z,1075.00
2023-04-11T07:57:48.071Z,1076.00
2023-04-11T07:58:48.029Z,1079.00
2023-04-11T07:59:48.020Z,1075.00
2023-04-11T08:00:47.965Z,1074.00
2023-04-11T08:01:48.785Z,1073.00
2023-04-11T08:02:47.979Z,1072.00
2023-04-11T08:03:48.011Z,1070.00
2023-04-11T08:04:47.905Z,1068.00
2023-04-11T08:05:47.788Z,1069.00
2023-04-11T08:06:47.754Z,1069.00
2023-04-11T08:07:47.712Z,1065.00
2023-04-11T08:08:47.670Z,1069.00
2023-04-11T08:09:47.625Z,1065.00
2023-04-11T08:10:47.951Z,1066.00
2023-04-11T08:11:47.562Z,1067.00
2023-04-11T08:12:47.532Z,1065.00
2023-04-11T08:13:47.498Z,1081.00
2023-04-11T08:14:47.473Z,1084.00
2023-04-11T08:15:47.453Z,1087.00
2023-04-11T08:16:47.432Z,1023.00
2023-04-11T08:17:47.410Z,1050.00
2023-04-11T08:18:47.319Z,1057.00
2023-04-11T08:19:47.282Z,1080.00
2023-04-11T08:20:47.826Z,1093.00
2023-04-11T08:21:47.261Z,1111.00
2023-04-11T08:22:47.213Z,1133.00
2023-04-11T08:23:47.403Z,1049.00
2023-04-11T08:24:47.103Z,1063.00
2023-04-11T08:25:47.067Z,1079.00
2023-04-11T08:26:47.031Z,1072.00
2023-04-11T08:27:47.023Z,1064.00
2023-04-11T08:28:46.951Z,1099.00
2023-04-11T08:29:46.908Z,1164.00
2023-04-11T08:30:46.899Z,1171.00
2023-04-11T08:31:46.852Z,1200.00
2023-04-11T08:32:46.849Z,1231.00
2023-04-11T08:33:46.795Z,1249.00
2023-04-11T08:34:46.749Z,1264.00
2023-04-11T08:35:46.727Z,1290.00
2023-04-11T08:36:46.686Z,1314.00
2023-04-11T08:37:46.682Z,1331.00
2023-04-11T08:38:46.610Z,1355.00
2023-04-11T08:39:46.562Z,1373.00
2023-04-11T08:40:46.551Z,1385.00
2023-04-11T08:41:46.503Z,1396.00
2023-04-11T08:42:47.361Z,1413.00
2023-04-11T08:43:46.407Z,1426.00
2023-04-11T08:44:46.356Z,1443.00
2023-04-11T08:45:46.384Z,1460.00
2023-04-11T08:46:46.289Z,1488.00
2023-04-11T08:47:46.295Z,1506.00
2023-04-11T08:48:46.225Z,1532.00
2023-04-11T08:49:46.141Z,1547.00
2023-04-11T08:50:46.146Z,1564.00
2023-04-11T08:51:46.126Z,1578.00
2023-04-11T08:52:46.142Z,1593.00
2023-04-11T08:53:46.169Z,1611.00
2023-04-11T08:54:46.177Z,1628.00
2023-04-11T08:55:46.217Z,1642.00
2023-04-11T08:56:46.238Z,1666.00
2023-04-11T08:57:46.233Z,1680.00
2023-04-11T08:58:46.259Z,1696.00
2023-04-11T08:59:46.584Z,1705.00
2023-04-11T09:00:46.295Z,1719.00
2023-04-11T09:01:46.425Z,1733.00
2023-04-11T09:02:46.432Z,1751.00
2023-04-11T09:03:46.537Z,1772.00
2023-04-11T09:04:46.404Z,1794.00
2023-04-11T09:05:46.372Z,1810.00
2023-04-11T09:06:46.397Z,1817.00
2023-04-11T09:07:46.400Z,1820.00
2023-04-11T09:08:46.422Z,1834.00
2023-04-11T09:09:47.264Z,1851.00
2023-04-11T09:10:46.485Z,1867.00
2023-04-11T09:11:46.462Z,1879.00
2023-04-11T09:12:46.471Z,1889.00
2023-04-11T09:13:46.484Z,1897.00
2023-04-11T09:14:46.541Z,1910.00
2023-04-11T09:15:46.509Z,1924.00
2023-04-11T09:16:46.526Z,1938.00
2023-04-11T09:17:46.568Z,1944.00
2023-04-11T09:18:46.811Z,1945.00
2023-04-11T09:19:48.915Z,1982.00
2023-04-11T09:20:47.494Z,1985.00
2023-04-11T09:21:46.453Z,1986.00
2023-04-11T09:22:46.408Z,1975.00
2023-04-11T09:23:46.363Z,1967.00
2023-04-11T09:24:46.321Z,1962.00
2023-04-11T09:25:46.852Z,1956.00
2023-04-11T09:26:46.767Z,1949.00
2023-04-11T09:27:46.192Z,1940.00
2023-04-11T09:28:46.169Z,1926.00
2023-04-11T09:29:46.132Z,1918.00
2023-04-11T09:30:46.229Z,1914.00
2023-04-11T09:31:47.205Z,1913.00
2023-04-11T09:32:46.138Z,1911.00
2023-04-11T09:33:46.043Z,1910.00
2023-04-11T09:34:45.992Z,1907.00
2023-04-11T09:35:45.968Z,1905.00
2023-04-11T09:36:45.930Z,1902.00
2023-04-11T09:37:45.858Z,1898.00
2023-04-11T09:38:45.830Z,1899.00
2023-04-11T09:39:45.808Z,1899.00
2023-04-11T09:40:45.831Z,1898.00
2023-04-11T09:41:45.853Z,1900.00
2023-04-11T09:42:45.877Z,1897.00
2023-04-11T09:43:45.916Z,1894.00
2023-04-11T09:44:45.938Z,1892.00
2023-04-11T09:45:54.085Z,1891.00
2023-04-11T09:46:46.953Z,1890.00
2023-04-11T09:47:45.915Z,1886.00
2023-04-11T09:48:47.114Z,1885.00
2023-04-11T09:49:45.813Z,1890.00
2023-04-11T09:50:45.777Z,1889.00
2023-04-11T09:51:45.738Z,1889.00
2023-04-11T09:52:45.681Z,1886.00
2023-04-11T09:53:45.650Z,1887.00
2023-04-11T09:54:45.636Z,1886.00
2023-04-11T09:55:45.735Z,1884.00
2023-04-11T09:56:45.696Z,1884.00
2023-04-11T09:57:45.781Z,1882.00
2023-04-11T09:58:45.752Z,1879.00
2023-04-11T09:59:45.789Z,1874.00
2023-04-11T10:00:45.823Z,1870.00
2023-04-11T10:01:45.892Z,1868.00
2023-04-11T10:02:46.044Z,1864.00
2023-04-11T10:03:45.899Z,1866.00
2023-04-11T10:04:45.921Z,1862.00
2023-04-11T10:05:45.922Z,1861.00
2023-04-11T10:06:45.957Z,1858.00
2023-04-11T10:07:46.031Z,1856.00
2023-04-11T10:08:46.025Z,1850.00
2023-04-11T10:09:46.059Z,1847.00
2023-04-11T10:10:46.079Z,1839.00
2023-04-11T10:11:46.137Z,1837.00
2023-04-11T10:12:46.097Z,1831.00
2023-04-11T10:13:46.122Z,1823.00
2023-04-11T10:14:46.126Z,1821.00
2023-04-11T10:15:46.105Z,1822.00
2023-04-11T10:16:46.174Z,1827.00
2023-04-11T10:17:46.197Z,1829.00
2023-04-11T10:18:46.159Z,1827.00
2023-04-11T10:19:46.864Z,1826.00
2023-04-11T10:20:46.874Z,1828.00
2023-04-11T10:21:46.859Z,1820.00
2023-04-11T10:22:46.136Z,1820.00
2023-04-11T10:23:46.093Z,1824.00
2023-04-11T10:24:46.134Z,1822.00
2023-04-11T10:25:46.204Z,1820.00
2023-04-11T10:26:47.217Z,1822.00
2023-04-11T10:27:46.217Z,1819.00
2023-04-11T10:28:46.241Z,1818.00
2023-04-11T10:29:46.274Z,1816.00
2023-04-11T10:30:46.293Z,1812.00
2023-04-11T10:31:46.310Z,1813.00
2023-04-11T10:32:46.322Z,1816.00
2023-04-11T10:33:46.866Z,1813.00
2023-04-11T10:34:46.346Z,1814.00
2023-04-11T10:35:46.391Z,1815.00
2023-04-11T10:36:46.389Z,1812.00
2023-04-11T10:37:46.409Z,1811.00
2023-04-11T10:38:46.430Z,1809.00
2023-04-11T10:39:46.445Z,1806.00
2023-04-11T10:40:46.452Z,1805.00
2023-04-11T10:41:46.450Z,1801.00
2023-04-11T10:42:46.455Z,1799.00
2023-04-11T10:43:46.476Z,1797.00
2023-04-11T10:44:46.437Z,1797.00
2023-04-11T10:45:46.417Z,1792.00
2023-04-11T10:46:46.419Z,1791.00
2023-04-11T10:47:46.410Z,1786.00
2023-04-11T10:48:46.404Z,1784.00
2023-04-11T10:49:47.300Z,1782.00
2023-04-11T10:50:46.406Z,1779.00
2023-04-11T10:51:46.404Z,1776.00
2023-04-11T10:52:46.426Z,1769.00
2023-04-11T10:53:46.433Z,1765.00
2023-04-11T10:54:46.433Z,1762.00
2023-04-11T10:55:46.393Z,1755.00
2023-04-11T10:56:46.352Z,1749.00
2023-04-11T10:57:46.348Z,1746.00
2023-04-11T10:58:46.348Z,1744.00
2023-04-11T10:59:46.366Z,1746.00
2023-04-11T11:00:46.386Z,1750.00
2023-04-11T11:01:52.372Z,1751.00
2023-04-11T11:02:47.444Z,1752.00
2023-04-11T11:03:46.523Z,1753.00
2023-04-11T11:04:46.256Z,1751.00
2023-04-11T11:05:46.166Z,1749.00
2023-04-11T11:06:54.540Z,1747.00
2023-04-11T11:07:47.082Z,1743.00
2023-04-11T11:08:46.043Z,1738.00
2023-04-11T11:09:45.984Z,1733.00
2023-04-11T11:10:45.934Z,1731.00
2023-04-11T11:11:45.898Z,1730.00
2023-04-11T11:12:45.865Z,1730.00
2023-04-11T11:13:45.828Z,1727.00
2023-04-11T11:14:45.801Z,1718.00
2023-04-11T11:15:45.764Z,1611.00
2023-04-11T11:16:45.739Z,1612.00
2023-04-11T11:17:45.716Z,1592.00
2023-04-11T11:18:45.635Z,1598.00
2023-04-11T11:19:45.628Z,1611.00
2023-04-11T11:20:45.564Z,1619.00
2023-04-11T11:21:45.505Z,1627.00
2023-04-11T11:22:45.483Z,1500.00
2023-04-11T11:23:45.435Z,1409.00
2023-04-11T11:24:45.392Z,1403.00
2023-04-11T11:25:45.380Z,1411.00
2023-04-11T11:26:45.387Z,1417.00
2023-04-11T11:27:45.392Z,1272.00
2023-04-11T11:28:45.365Z,1353.00
2023-04-11T11:29:45.338Z,1368.00
2023-04-11T11:30:45.293Z,1400.00
2023-04-11T11:31:45.266Z,1412.00
2023-04-11T11:32:45.317Z,1421.00
2023-04-11T11:33:45.248Z,1425.00
2023-04-11T11:34:45.197Z,1431.00
2023-04-11T11:35:45.166Z,1439.00
2023-04-11T11:36:45.208Z,1443.00
2023-04-11T11:37:45.131Z,1445.00
2023-04-11T11:38:45.080Z,1449.00
2023-04-11T11:39:45.030Z,1450.00
2023-04-11T11:40:44.981Z,1453.00
2023-04-11T11:41:44.935Z,1454.00
2023-04-11T11:42:44.926Z,1455.00
2023-04-11T11:43:44.911Z,1454.00
2023-04-11T11:44:44.876Z,1452.00
2023-04-11T11:45:44.878Z,1448.00
2023-04-11T11:46:44.978Z,1450.00
2023-04-11T11:47:44.883Z,1450.00
2023-04-11T11:48:44.806Z,1448.00
2023-04-11T11:49:44.796Z,1448.00
2023-04-11T11:50:44.795Z,1447.00
2023-04-11T11:51:44.779Z,1448.00
2023-04-11T11:52:44.760Z,1450.00
2023-04-11T11:53:44.711Z,1451.00
2023-04-11T11:54:44.702Z,1451.00
2023-04-11T11:55:44.685Z,1451.00
2023-04-11T11:56:44.690Z,1451.00
2023-04-11T11:57:44.703Z,1448.00
2023-04-11T11:58:44.660Z,1451.00
2023-04-11T11:59:44.618Z,1453.00
2023-04-11T12:00:44.603Z,1456.00
2023-04-11T12:01:44.661Z,1456.00
2023-04-11T12:02:44.963Z,1454.00
2023-04-11T12:03:44.789Z,1450.00
2023-04-11T12:04:45.507Z,1445.00
2023-04-11T12:05:44.688Z,1446.00
2023-04-11T12:06:44.719Z,1446.00
2023-04-11T12:07:44.765Z,1444.00
2023-04-11T12:08:46.350Z,1445.00
2023-04-11T12:09:44.782Z,1442.00
2023-04-11T12:10:44.763Z,1441.00
2023-04-11T12:11:44.767Z,1433.00
2023-04-11T12:12:52.915Z,1431.00
2023-04-11T12:13:45.740Z,1429.00
2023-04-11T12:14:44.690Z,1425.00
2023-04-11T12:15:44.659Z,1423.00
2023-04-11T12:16:44.613Z,1421.00
2023-04-11T12:17:45.387Z,1421.00